createdAt,value
2018-02-08T00:00:04.651Z,0
2018-02-08T00:01:04.887Z,0
2018-02-08T00:02:04.862Z,0
2018-02-08T00:03:05.144Z,0
2018-02-08T00:04:04.615Z,0
2018-02-08T00:05:04.806Z,0
2018-02-08T00:06:04.280Z,0
2018-02-08T00:07:04.774Z,0
2018-02-08T00:08:04.754Z,0
2018-02-08T00:09:04.246Z,0
2018-02-08T00:10:04.718Z,0
2018-02-08T00:11:04.504Z,0
2018-02-08T00:12:04.682Z,0
2018-02-08T00:13:04.410Z,0
2018-02-08T00:14:04.642Z,0
2018-02-08T00:15:04.366Z,0
2018-02-08T00:16:04.351Z,0
2018-02-08T00:17:04.581Z,0
2018-02-08T00:18:04.306Z,0
2018-02-08T00:19:04.546Z,0
2018-02-08T00:20:04.273Z,0
2018-02-08T00:21:04.252Z,0
2018-02-08T00:22:04.243Z,0
2018-02-08T00:23:04.231Z,0
2018-02-08T00:24:04.199Z,0
2018-02-08T00:25:19.087Z,0
2018-02-08T00:26:03.901Z,0
2018-02-08T00:27:04.391Z,0
2018-02-08T00:28:04.118Z,0
2018-02-08T00:29:04.362Z,0
2018-02-08T00:30:04.084Z,0
2018-02-08T00:31:04.071Z,0
2018-02-08T00:32:04.043Z,0
2018-02-08T00:33:04.039Z,0
2018-02-08T00:34:04.506Z,0
2018-02-08T00:35:03.991Z,0
2018-02-08T00:36:04.225Z,0
2018-02-08T00:37:04.211Z,0
2018-02-08T00:38:03.933Z,0
2018-02-08T00:39:04.166Z,0
2018-02-08T00:40:04.155Z,0
2018-02-08T00:41:03.880Z,0
2018-02-08T00:42:04.107Z,0
2018-02-08T00:43:03.587Z,0
2018-02-08T00:44:03.816Z,0
2018-02-08T00:45:18.717Z,0
2018-02-08T00:46:04.030Z,0
2018-02-08T00:47:04.009Z,0
2018-02-08T00:48:03.487Z,0
2018-02-08T00:49:02.963Z,0
2018-02-08T00:50:03.715Z,0
2018-02-08T00:51:03.935Z,0
2018-02-08T00:52:03.951Z,0
2018-02-08T00:53:03.642Z,0
2018-02-08T00:54:03.889Z,0
2018-02-08T00:55:03.099Z,0
2018-02-08T00:56:03.590Z,0
2018-02-08T00:57:03.826Z,0
2018-02-08T00:58:03.804Z,0
2018-02-08T00:59:03.532Z,0
2018-02-08T01:00:03.771Z,0
2018-02-08T01:01:03.515Z,0
2018-02-08T01:02:03.734Z,0
2018-02-08T01:03:03.467Z,0
2018-02-08T01:04:03.440Z,0
2018-02-08T01:05:03.718Z,0
2018-02-08T01:06:03.402Z,0
2018-02-08T01:07:03.629Z,0
2018-02-08T01:08:03.638Z,0
2018-02-08T01:09:03.598Z,0
2018-02-08T01:10:02.822Z,0
2018-02-08T01:11:03.304Z,0
2018-02-08T01:12:03.543Z,0
2018-02-08T01:13:03.519Z,0
2018-02-08T01:14:03.512Z,0
2018-02-08T01:15:03.224Z,0
2018-02-08T01:16:03.468Z,0
2018-02-08T01:17:03.191Z,0
2018-02-08T01:18:03.233Z,0
2018-02-08T01:19:03.407Z,0
2018-02-08T01:20:03.390Z,0
2018-02-08T01:21:02.874Z,0
2018-02-08T01:22:02.840Z,0
2018-02-08T01:23:03.332Z,0
2018-02-08T01:24:03.318Z,0
2018-02-08T01:25:03.036Z,0
2018-02-08T01:26:03.271Z,0
2018-02-08T01:27:03.260Z,0
2018-02-08T01:28:02.979Z,0
2018-02-08T01:29:03.214Z,0
2018-02-08T01:30:17.607Z,0
2018-02-08T01:31:03.180Z,0
2018-02-08T01:32:03.159Z,0
2018-02-08T01:33:03.139Z,0
2018-02-08T01:34:02.879Z,0
2018-02-08T01:35:02.642Z,0
2018-02-08T01:36:03.176Z,0
2018-02-08T01:37:03.082Z,0
2018-02-08T01:38:02.790Z,0
2018-02-08T01:39:02.812Z,0
2018-02-08T01:40:02.754Z,0
2018-02-08T01:41:02.745Z,0
2018-02-08T01:42:02.987Z,0
2018-02-08T01:43:02.702Z,0
2018-02-08T01:44:02.937Z,0
2018-02-08T01:45:02.422Z,0
2018-02-08T01:46:02.642Z,0
2018-02-08T01:47:02.878Z,0
2018-02-08T01:48:02.359Z,0
2018-02-08T01:49:02.327Z,0
2018-02-08T01:50:02.574Z,0
2018-02-08T01:51:02.295Z,0
2018-02-08T01:52:02.778Z,0
2018-02-08T01:53:02.498Z,0
2018-02-08T01:54:02.490Z,0
2018-02-08T01:55:02.719Z,0
2018-02-08T01:56:02.701Z,0
2018-02-08T01:57:02.183Z,0
2018-02-08T01:58:02.418Z,0
2018-02-08T01:59:02.397Z,0
2018-02-08T02:00:02.392Z,0
2018-02-08T02:01:02.605Z,0
2018-02-08T02:02:02.600Z,0
2018-02-08T02:03:02.566Z,0
2018-02-08T02:04:02.043Z,0
2018-02-08T02:05:02.276Z,0
2018-02-08T02:06:02.263Z,0
2018-02-08T02:07:02.802Z,0
2018-02-08T02:08:02.226Z,0
2018-02-08T02:09:02.456Z,0
2018-02-08T02:10:02.435Z,0
2018-02-08T02:11:02.413Z,0
2018-02-08T02:12:02.397Z,0
2018-02-08T02:13:02.122Z,0
2018-02-08T02:14:02.104Z,0
2018-02-08T02:15:02.346Z,0
2018-02-08T02:16:02.068Z,0
2018-02-08T02:17:01.790Z,0
2018-02-08T02:18:02.029Z,0
2018-02-08T02:19:02.006Z,0
2018-02-08T02:20:02.239Z,0
2018-02-08T02:21:02.223Z,0
2018-02-08T02:22:01.951Z,0
2018-02-08T02:23:01.934Z,0
2018-02-08T02:24:01.915Z,0
2018-02-08T02:25:01.641Z,0
2018-02-08T02:26:01.365Z,0
2018-02-08T02:27:01.602Z,0
2018-02-08T02:28:02.082Z,0
2018-02-08T02:29:01.306Z,0
2018-02-08T02:30:01.802Z,0
2018-02-08T02:31:02.032Z,0
2018-02-08T02:32:02.023Z,0
2018-02-08T02:33:01.997Z,0
2018-02-08T02:34:01.728Z,0
2018-02-08T02:35:01.964Z,0
2018-02-08T02:36:01.682Z,0
2018-02-08T02:37:01.919Z,0
2018-02-08T02:38:01.914Z,0
2018-02-08T02:39:02.145Z,0
2018-02-08T02:40:01.864Z,0
2018-02-08T02:41:01.586Z,0
2018-02-08T02:42:01.822Z,0
2018-02-08T02:43:01.803Z,0
2018-02-08T02:44:01.473Z,0
2018-02-08T02:45:01.513Z,0
2018-02-08T02:46:01.747Z,0
2018-02-08T02:47:01.484Z,0
2018-02-08T02:48:01.717Z,0
2018-02-08T02:49:01.697Z,0
2018-02-08T02:50:01.420Z,0
2018-02-08T02:51:01.657Z,0
2018-02-08T02:52:01.633Z,0
2018-02-08T02:53:01.613Z,0
2018-02-08T02:54:01.592Z,0
2018-02-08T02:55:01.569Z,0
2018-02-08T02:56:01.555Z,0
2018-02-08T02:57:01.541Z,0
2018-02-08T02:58:01.515Z,0
2018-02-08T02:59:01.505Z,0
2018-02-08T03:00:01.484Z,0
2018-02-08T03:01:01.200Z,0
2018-02-08T03:02:01.448Z,0
2018-02-08T03:03:00.917Z,0
2018-02-08T03:04:01.409Z,0
2018-02-08T03:05:00.874Z,0
2018-02-08T03:06:01.119Z,0
2018-02-08T03:07:01.350Z,0
2018-02-08T03:08:01.071Z,0
2018-02-08T03:09:01.306Z,0
2018-02-08T03:10:01.531Z,0
2018-02-08T03:11:01.284Z,0
2018-02-08T03:12:00.740Z,0
2018-02-08T03:13:00.973Z,0
2018-02-08T03:14:00.950Z,0
2018-02-08T03:15:00.731Z,0
2018-02-08T03:16:01.181Z,0
2018-02-08T03:17:00.897Z,0
2018-02-08T03:18:01.134Z,0
2018-02-08T03:19:00.602Z,0
2018-02-08T03:20:01.090Z,0
2018-02-08T03:21:00.816Z,0
2018-02-08T03:22:01.082Z,0
2018-02-08T03:23:00.527Z,0
2018-02-08T03:24:01.013Z,0
2018-02-08T03:25:00.493Z,0
2018-02-08T03:26:00.973Z,0
2018-02-08T03:27:00.455Z,0
2018-02-08T03:28:00.931Z,0
2018-02-08T03:29:00.917Z,0
2018-02-08T03:30:00.389Z,0
2018-02-08T03:31:00.884Z,0
2018-02-08T03:32:00.860Z,0
2018-02-08T03:33:00.591Z,0
2018-02-08T03:34:00.568Z,0
2018-02-08T03:35:00.546Z,0
2018-02-08T03:36:00.028Z,0
2018-02-08T03:37:00.774Z,0
2018-02-08T03:38:00.493Z,0
2018-02-08T03:39:00.467Z,0
2018-02-08T03:40:00.479Z,0
2018-02-08T03:41:00.490Z,0
2018-02-08T03:42:00.665Z,0
2018-02-08T03:43:00.651Z,0
2018-02-08T03:44:00.627Z,0
2018-02-08T03:44:59.854Z,0
2018-02-08T03:46:00.591Z,0
2018-02-08T03:47:00.568Z,0
2018-02-08T03:48:00.555Z,0
2018-02-08T03:49:00.530Z,0
2018-02-08T03:50:00.518Z,0
2018-02-08T03:51:00.251Z,0
2018-02-08T03:52:00.468Z,0
2018-02-08T03:53:00.452Z,0
2018-02-08T03:54:00.183Z,0
2018-02-08T03:55:00.163Z,0
2018-02-08T03:56:00.391Z,0
2018-02-08T03:56:59.865Z,0
2018-02-08T03:58:00.108Z,0
2018-02-08T03:59:00.149Z,0
2018-02-08T04:00:00.063Z,0
2018-02-08T04:01:00.058Z,0
2018-02-08T04:02:00.027Z,0
2018-02-08T04:03:00.007Z,0
2018-02-08T04:03:59.985Z,0
2018-02-08T04:04:59.967Z,0
2018-02-08T04:06:00.203Z,0
2018-02-08T04:06:59.927Z,0
2018-02-08T04:08:00.173Z,0
2018-02-08T04:09:00.141Z,0
2018-02-08T04:10:00.127Z,0
2018-02-08T04:11:00.105Z,0
2018-02-08T04:12:00.081Z,0
2018-02-08T04:12:59.558Z,0
2018-02-08T04:14:00.048Z,0
2018-02-08T04:14:59.518Z,0
2018-02-08T04:15:59.758Z,0
2018-02-08T04:16:59.778Z,0
2018-02-08T04:17:59.718Z,0
2018-02-08T04:18:59.953Z,0
2018-02-08T04:19:59.432Z,0
2018-02-08T04:20:59.916Z,0
2018-02-08T04:21:59.904Z,0
2018-02-08T04:22:59.627Z,0
2018-02-08T04:23:59.604Z,0
2018-02-08T04:24:59.327Z,0
2018-02-08T04:25:59.571Z,0
2018-02-08T04:26:59.288Z,0
2018-02-08T04:27:59.532Z,0
2018-02-08T04:28:59.251Z,0
2018-02-08T04:29:59.479Z,0
2018-02-08T04:30:59.464Z,0
2018-02-08T04:31:59.696Z,0
2018-02-08T04:32:59.671Z,0
2018-02-08T04:33:59.407Z,0
2018-02-08T04:34:59.387Z,0
2018-02-08T04:35:59.366Z,0
2018-02-08T04:36:59.360Z,0
2018-02-08T04:37:59.074Z,0
2018-02-08T04:38:59.559Z,0
2018-02-08T04:39:59.537Z,0
2018-02-08T04:40:59.015Z,0
2018-02-08T04:41:59.244Z,0
2018-02-08T04:42:59.723Z,0
2018-02-08T04:43:59.212Z,0
2018-02-08T04:44:59.438Z,0
2018-02-08T04:45:59.171Z,0
2018-02-08T04:46:58.902Z,0
2018-02-08T04:47:59.383Z,0
2018-02-08T04:48:58.854Z,0
2018-02-08T04:49:59.350Z,0
2018-02-08T04:50:59.325Z,0
2018-02-08T04:51:58.552Z,0
2018-02-08T04:52:59.293Z,0
2018-02-08T04:53:58.761Z,0
2018-02-08T04:54:58.740Z,0
2018-02-08T04:55:59.233Z,0
2018-02-08T04:56:58.958Z,0
2018-02-08T04:57:59.199Z,0
2018-02-08T04:58:58.920Z,0
2018-02-08T04:59:58.897Z,0
2018-02-08T05:00:59.136Z,0
2018-02-08T05:01:59.114Z,0
2018-02-08T05:02:58.578Z,0
2018-02-08T05:03:58.818Z,0
2018-02-08T05:04:58.590Z,0
2018-02-08T05:05:58.779Z,0
2018-02-08T05:06:59.018Z,0
2018-02-08T05:07:58.738Z,0
2018-02-08T05:08:58.972Z,0
2018-02-08T05:09:58.716Z,0
2018-02-08T05:10:58.704Z,0
2018-02-08T05:11:58.970Z,0
2018-02-08T05:12:58.895Z,0
2018-02-08T05:13:59.133Z,0
2018-02-08T05:14:58.344Z,0
2018-02-08T05:15:58.588Z,0
2018-02-08T05:16:58.830Z,0
2018-02-08T05:17:58.307Z,0
2018-02-08T05:18:58.268Z,0
2018-02-08T05:19:58.558Z,0
2018-02-08T05:20:58.235Z,0
2018-02-08T05:21:58.213Z,0
2018-02-08T05:22:58.451Z,0
2018-02-08T05:23:58.683Z,0
2018-02-08T05:24:58.416Z,0
2018-02-08T05:25:58.135Z,0
2018-02-08T05:26:58.115Z,0
2018-02-08T05:27:58.603Z,0
2018-02-08T05:28:58.343Z,0
2018-02-08T05:29:58.616Z,0
2018-02-08T05:30:58.296Z,0
2018-02-08T05:31:58.531Z,0
2018-02-08T05:32:58.287Z,0
2018-02-08T05:33:58.495Z,0
2018-02-08T05:34:57.961Z,0
2018-02-08T05:35:58.191Z,0
2018-02-08T05:36:58.429Z,0
2018-02-08T05:37:57.897Z,0
2018-02-08T05:38:57.886Z,0
2018-02-08T05:39:58.111Z,0
2018-02-08T05:40:58.434Z,0
2018-02-08T05:41:58.323Z,0
2018-02-08T05:42:57.806Z,0
2018-02-08T05:44:12.695Z,0
2018-02-08T05:44:58.268Z,0
2018-02-08T05:45:58.523Z,0
2018-02-08T05:46:58.228Z,0
2018-02-08T05:47:58.215Z,0
2018-02-08T05:48:57.939Z,0
2018-02-08T05:49:58.167Z,0
2018-02-08T05:50:57.648Z,0
2018-02-08T05:51:57.884Z,0
2018-02-08T05:52:57.693Z,0
2018-02-08T05:53:57.834Z,0
2018-02-08T05:54:58.080Z,0
2018-02-08T05:55:58.052Z,0
2018-02-08T05:56:58.037Z,0
2018-02-08T05:57:58.022Z,0
2018-02-08T05:58:58.014Z,0
2018-02-08T05:59:58.020Z,0
2018-02-08T06:00:57.966Z,0
2018-02-08T06:01:57.952Z,0
2018-02-08T06:02:57.416Z,0
2018-02-08T06:03:57.902Z,0
2018-02-08T06:04:57.634Z,0
2018-02-08T06:05:57.865Z,0
2018-02-08T06:06:57.594Z,0
2018-02-08T06:07:57.571Z,0
2018-02-08T06:08:57.807Z,0
2018-02-08T06:09:57.529Z,0
2018-02-08T06:10:57.761Z,0
2018-02-08T06:11:57.807Z,0
2018-02-08T06:12:57.469Z,0
2018-02-08T06:13:57.455Z,0
2018-02-08T06:14:57.435Z,0
2018-02-08T06:15:57.417Z,0
2018-02-08T06:16:57.654Z,0
2018-02-08T06:17:56.869Z,0
2018-02-08T06:18:57.358Z,0
2018-02-08T06:19:57.595Z,0
2018-02-08T06:20:57.573Z,0
2018-02-08T06:21:57.300Z,0
2018-02-08T06:22:57.281Z,0
2018-02-08T06:23:57.005Z,0
2018-02-08T06:24:57.244Z,0
2018-02-08T06:25:57.219Z,5
2018-02-08T06:27:12.916Z,5
2018-02-08T06:27:57.185Z,5
2018-02-08T06:28:57.168Z,5
2018-02-08T06:29:56.887Z,5
2018-02-08T06:30:57.376Z,5
2018-02-08T06:31:57.101Z,5
2018-02-08T06:32:56.878Z,10
2018-02-08T06:33:57.322Z,10
2018-02-08T06:34:57.057Z,10
2018-02-08T06:35:57.027Z,10
2018-02-08T06:36:57.260Z,10
2018-02-08T06:37:56.733Z,15
2018-02-08T06:38:57.230Z,15
2018-02-08T06:39:56.961Z,15
2018-02-08T06:40:56.680Z,15
2018-02-08T06:41:57.168Z,20
2018-02-08T06:42:57.145Z,20
2018-02-08T06:43:56.875Z,20
2018-02-08T06:44:56.344Z,20
2018-02-08T06:45:56.845Z,25
2018-02-08T06:46:56.817Z,25
2018-02-08T06:47:56.807Z,25
2018-02-08T06:48:57.086Z,30
2018-02-08T06:49:56.759Z,30
2018-02-08T06:50:57.017Z,30
2018-02-08T06:51:56.720Z,35
2018-02-08T06:52:56.699Z,35
2018-02-08T06:53:56.428Z,35
2018-02-08T06:54:56.655Z,40
2018-02-08T06:55:56.897Z,40
2018-02-08T06:56:56.876Z,45
2018-02-08T06:57:56.603Z,45
2018-02-08T06:58:56.584Z,50
2018-02-08T06:59:56.313Z,50
2018-02-08T07:00:56.543Z,50
2018-02-08T07:01:56.774Z,55
2018-02-08T07:02:56.253Z,55
2018-02-08T07:03:56.500Z,55
2018-02-08T07:04:56.468Z,60
2018-02-08T07:05:56.453Z,55
2018-02-08T07:06:56.173Z,60
2018-02-08T07:07:56.669Z,65
2018-02-08T07:08:56.695Z,65
2018-02-08T07:09:56.627Z,70
2018-02-08T07:10:56.351Z,70
2018-02-08T07:11:56.336Z,75
2018-02-08T07:12:56.577Z,75
2018-02-08T07:13:56.301Z,80
2018-02-08T07:14:56.037Z,80
2018-02-08T07:15:56.252Z,80
2018-02-08T07:16:56.503Z,85
2018-02-08T07:17:56.507Z,90
2018-02-08T07:18:56.200Z,90
2018-02-08T07:19:56.184Z,90
2018-02-08T07:20:56.420Z,95
2018-02-08T07:21:56.406Z,100
2018-02-08T07:22:56.135Z,100
2018-02-08T07:23:56.102Z,105
2018-02-08T07:24:56.350Z,105
2018-02-08T07:25:56.072Z,110
2018-02-08T07:26:56.052Z,115
2018-02-08T07:27:56.043Z,110
2018-02-08T07:28:56.097Z,110
2018-02-08T07:29:56.252Z,105
2018-02-08T07:30:55.983Z,105
2018-02-08T07:31:55.708Z,105
2018-02-08T07:32:56.205Z,105
2018-02-08T07:33:56.169Z,110
2018-02-08T07:34:56.181Z,115
2018-02-08T07:35:55.890Z,130
2018-02-08T07:36:56.134Z,115
2018-02-08T07:37:56.104Z,145
2018-02-08T07:38:56.095Z,130
2018-02-08T07:39:55.586Z,150
2018-02-08T07:40:55.811Z,120
2018-02-08T07:41:56.037Z,120
2018-02-08T07:42:55.510Z,150
2018-02-08T07:43:55.241Z,125
2018-02-08T07:44:55.529Z,130
2018-02-08T07:45:55.713Z,125
2018-02-08T07:46:55.697Z,130
2018-02-08T07:47:55.423Z,130
2018-02-08T07:48:55.658Z,130
2018-02-08T07:49:55.642Z,130
2018-02-08T07:50:55.869Z,135
2018-02-08T07:51:55.606Z,135
2018-02-08T07:52:55.849Z,135
2018-02-08T07:53:55.572Z,135
2018-02-08T07:54:55.594Z,135
2018-02-08T07:55:55.793Z,135
2018-02-08T07:56:55.775Z,140
2018-02-08T07:57:55.249Z,140
2018-02-08T07:58:55.486Z,140
2018-02-08T07:59:55.468Z,140
2018-02-08T08:00:55.458Z,145
2018-02-08T08:01:55.183Z,145
2018-02-08T08:02:55.174Z,145
2018-02-08T08:03:55.476Z,145
2018-02-08T08:04:55.627Z,150
2018-02-08T08:05:55.613Z,150
2018-02-08T08:06:55.088Z,150
2018-02-08T08:07:55.076Z,150
2018-02-08T08:08:55.311Z,150
2018-02-08T08:09:55.295Z,150
2018-02-08T08:10:55.524Z,150
2018-02-08T08:11:55.001Z,155
2018-02-08T08:12:55.574Z,155
2018-02-08T08:13:55.237Z,155
2018-02-08T08:14:55.204Z,155
2018-02-08T08:15:55.184Z,160
2018-02-08T08:17:09.580Z,160
2018-02-08T08:17:55.413Z,160
2018-02-08T08:18:55.385Z,160
2018-02-08T08:19:54.859Z,160
2018-02-08T08:20:55.357Z,160
2018-02-08T08:21:55.630Z,160
2018-02-08T08:22:54.558Z,165
2018-02-08T08:23:55.052Z,165
2018-02-08T08:24:55.031Z,165
2018-02-08T08:25:54.506Z,165
2018-02-08T08:26:54.996Z,165
2018-02-08T08:27:54.978Z,165
2018-02-08T08:28:54.965Z,165
2018-02-08T08:29:54.946Z,170
2018-02-08T08:30:54.972Z,170
2018-02-08T08:31:55.159Z,170
2018-02-08T08:32:54.702Z,170
2018-02-08T08:33:54.872Z,170
2018-02-08T08:34:54.607Z,170
2018-02-08T08:35:55.143Z,170
2018-02-08T08:36:54.817Z,170
2018-02-08T08:37:55.052Z,175
2018-02-08T08:38:54.789Z,175
2018-02-08T08:39:55.030Z,175
2018-02-08T08:40:55.007Z,175
2018-02-08T08:41:55.000Z,175
2018-02-08T08:42:54.974Z,175
2018-02-08T08:43:54.197Z,175
2018-02-08T08:44:54.437Z,175
2018-02-08T08:45:54.925Z,175
2018-02-08T08:46:54.648Z,175
2018-02-08T08:47:54.681Z,175
2018-02-08T08:48:54.357Z,175
2018-02-08T08:49:54.866Z,175
2018-02-08T08:50:54.573Z,175
2018-02-08T08:51:54.315Z,175
2018-02-08T08:52:54.843Z,175
2018-02-08T08:53:54.528Z,175
2018-02-08T08:54:54.267Z,175
2018-02-08T08:55:54.258Z,175
2018-02-08T08:56:54.731Z,175
2018-02-08T08:57:54.722Z,180
2018-02-08T08:58:54.696Z,180
2018-02-08T08:59:54.432Z,180
2018-02-08T09:00:54.677Z,180
2018-02-08T09:01:54.409Z,180
2018-02-08T09:02:54.380Z,180
2018-02-08T09:03:54.621Z,180
2018-02-08T09:04:54.592Z,180
2018-02-08T09:05:54.581Z,180
2018-02-08T09:06:54.317Z,180
2018-02-08T09:07:54.555Z,180
2018-02-08T09:08:53.774Z,180
2018-02-08T09:09:54.269Z,180
2018-02-08T09:10:54.498Z,180
2018-02-08T09:11:54.585Z,180
2018-02-08T09:12:53.962Z,180
2018-02-08T09:13:54.206Z,180
2018-02-08T09:14:54.442Z,180
2018-02-08T09:15:54.501Z,180
2018-02-08T09:16:54.146Z,180
2018-02-08T09:17:54.129Z,180
2018-02-08T09:18:54.383Z,180
2018-02-08T09:19:53.598Z,180
2018-02-08T09:20:54.349Z,180
2018-02-08T09:21:54.113Z,180
2018-02-08T09:22:54.301Z,180
2018-02-08T09:24:54.042Z,185
2018-02-08T09:26:08.667Z,180
2018-02-08T09:26:53.987Z,180
2018-02-08T09:27:53.716Z,180
2018-02-08T09:28:54.205Z,180
2018-02-08T09:29:54.203Z,185
2018-02-08T09:30:54.178Z,185
2018-02-08T09:31:54.173Z,180
2018-02-08T09:32:53.890Z,180
2018-02-08T09:33:53.623Z,180
2018-02-08T09:35:53.850Z,185
2018-02-08T09:36:53.834Z,180
2018-02-08T09:37:53.800Z,180
2018-02-08T09:38:53.546Z,180
2018-02-08T09:39:54.042Z,180
2018-02-08T09:40:54.010Z,180
2018-02-08T09:41:54.005Z,180
2018-02-08T09:42:53.986Z,180
2018-02-08T09:44:08.136Z,180
2018-02-08T09:44:53.693Z,180
2018-02-08T09:45:53.940Z,180
2018-02-08T09:46:53.673Z,180
2018-02-08T09:47:53.896Z,180
2018-02-08T09:48:53.382Z,180
2018-02-08T09:49:53.618Z,180
2018-02-08T09:50:53.606Z,180
2018-02-08T09:51:53.995Z,180
2018-02-08T09:52:53.318Z,180
2018-02-08T09:53:54.034Z,180
2018-02-08T09:54:54.087Z,180
2018-02-08T09:55:53.271Z,180
2018-02-08T09:56:53.532Z,180
2018-02-08T09:57:53.752Z,180
2018-02-08T09:58:53.472Z,180
2018-02-08T09:59:53.799Z,180
2018-02-08T10:00:52.941Z,175
2018-02-08T10:01:53.692Z,175
2018-02-08T10:02:53.670Z,175
2018-02-08T10:03:53.642Z,175
2018-02-08T10:04:53.396Z,175
2018-02-08T10:05:53.358Z,185
2018-02-08T10:06:53.602Z,185
2018-02-08T10:07:53.583Z,175
2018-02-08T10:08:53.584Z,175
2018-02-08T10:09:53.618Z,175
2018-02-08T10:10:53.535Z,175
2018-02-08T10:11:53.275Z,175
2018-02-08T10:12:53.259Z,175
2018-02-08T10:13:53.498Z,180
2018-02-08T10:14:53.245Z,175
2018-02-08T10:15:53.462Z,175
2018-02-08T10:16:53.458Z,175
2018-02-08T10:17:53.432Z,175
2018-02-08T10:18:53.171Z,175
2018-02-08T10:19:53.407Z,175
2018-02-08T10:20:53.378Z,175
2018-02-08T10:21:53.133Z,175
2018-02-08T10:22:53.483Z,175
2018-02-08T10:23:52.874Z,175
2018-02-08T10:24:52.814Z,175
2018-02-08T10:25:53.060Z,175
2018-02-08T10:26:53.592Z,175
2018-02-08T10:27:52.764Z,175
2018-02-08T10:28:52.753Z,175
2018-02-08T10:29:52.987Z,175
2018-02-08T10:30:53.011Z,175
2018-02-08T10:31:52.728Z,175
2018-02-08T10:32:52.689Z,175
2018-02-08T10:33:52.928Z,175
2018-02-08T10:34:53.169Z,180
2018-02-08T10:35:52.889Z,175
2018-02-08T10:36:53.188Z,175
2018-02-08T10:37:52.870Z,175
2018-02-08T10:38:52.636Z,175
2018-02-08T10:39:52.833Z,175
2018-02-08T10:40:52.572Z,175
2018-02-08T10:41:53.051Z,170
2018-02-08T10:42:53.044Z,170
2018-02-08T10:43:52.806Z,170
2018-02-08T10:44:53.031Z,170
2018-02-08T10:45:52.753Z,170
2018-02-08T10:46:52.725Z,170
2018-02-08T10:47:52.723Z,170
2018-02-08T10:48:52.463Z,170
2018-02-08T10:49:52.424Z,170
2018-02-08T10:50:52.706Z,170
2018-02-08T10:51:52.656Z,170
2018-02-08T10:52:52.636Z,170
2018-02-08T10:53:52.613Z,170
2018-02-08T10:54:52.850Z,170
2018-02-08T10:55:52.845Z,170
2018-02-08T10:56:52.825Z,170
2018-02-08T10:58:52.559Z,175
2018-02-08T10:59:52.284Z,175
2018-02-08T11:00:52.764Z,175
2018-02-08T11:01:52.523Z,175
2018-02-08T11:02:52.221Z,175
2018-02-08T11:03:52.492Z,175
2018-02-08T11:04:52.194Z,175
2018-02-08T11:05:52.495Z,175
2018-02-08T11:06:52.689Z,170
2018-02-08T11:07:52.662Z,170
2018-02-08T11:08:52.638Z,170
2018-02-08T11:09:52.624Z,170
2018-02-08T11:10:52.364Z,170
2018-02-08T11:11:52.631Z,170
2018-02-08T11:12:52.320Z,170
2018-02-08T11:13:52.316Z,170
2018-02-08T11:14:52.104Z,170
2018-02-08T11:16:06.950Z,170
2018-02-08T11:16:52.276Z,170
2018-02-08T11:17:52.009Z,170
2018-02-08T11:18:52.498Z,170
2018-02-08T11:19:52.525Z,170
2018-02-08T11:20:52.223Z,170
2018-02-08T11:21:52.192Z,170
2018-02-08T11:22:52.430Z,170
2018-02-08T11:23:52.419Z,170
2018-02-08T11:24:52.168Z,170
2018-02-08T11:25:52.126Z,170
2018-02-08T11:26:52.134Z,170
2018-02-08T11:27:52.358Z,170
2018-02-08T11:28:52.387Z,170
2018-02-08T11:29:52.074Z,170
2018-02-08T11:30:51.814Z,170
2018-02-08T11:31:52.318Z,170
2018-02-08T11:32:52.035Z,165
2018-02-08T11:33:51.509Z,165
2018-02-08T11:34:52.250Z,165
2018-02-08T11:35:52.097Z,165
2018-02-08T11:36:51.487Z,165
2018-02-08T11:37:52.231Z,165
2018-02-08T11:38:51.944Z,165
2018-02-08T11:39:51.927Z,165
2018-02-08T11:40:52.179Z,165
2018-02-08T11:41:52.144Z,165
2018-02-08T11:42:52.170Z,165
2018-02-08T11:43:51.895Z,165
2018-02-08T11:44:51.893Z,165
2018-02-08T11:45:51.838Z,165
2018-02-08T11:46:52.091Z,165
2018-02-08T11:47:51.571Z,165
2018-02-08T11:48:51.536Z,165
2018-02-08T11:49:51.522Z,165
2018-02-08T11:50:51.765Z,165
2018-02-08T11:51:52.003Z,165
2018-02-08T11:52:51.736Z,165
2018-02-08T11:53:52.009Z,165
2018-02-08T11:54:51.731Z,165
2018-02-08T11:55:51.760Z,165
2018-02-08T11:56:51.678Z,165
2018-02-08T11:57:51.920Z,165
2018-02-08T11:58:51.909Z,165
2018-02-08T11:59:51.961Z,165
2018-02-08T12:00:51.878Z,165
2018-02-08T12:01:51.608Z,165
2018-02-08T12:02:51.850Z,160
2018-02-08T12:03:51.578Z,160
2018-02-08T12:04:51.562Z,160
2018-02-08T12:05:51.551Z,160
2018-02-08T12:06:51.798Z,160
2018-02-08T12:07:51.804Z,160
2018-02-08T12:08:51.520Z,160
2018-02-08T12:09:51.487Z,160
2018-02-08T12:10:51.481Z,160
2018-02-08T12:11:51.735Z,160
2018-02-08T12:12:51.458Z,160
2018-02-08T12:13:51.711Z,155
2018-02-08T12:14:51.424Z,155
2018-02-08T12:15:51.652Z,155
2018-02-08T12:16:51.391Z,155
2018-02-08T12:17:51.647Z,155
2018-02-08T12:18:51.386Z,155
2018-02-08T12:19:51.607Z,155
2018-02-08T12:20:51.590Z,155
2018-02-08T12:21:51.568Z,155
2018-02-08T12:22:51.304Z,155
2018-02-08T12:23:51.540Z,155
2018-02-08T12:24:51.287Z,155
2018-02-08T12:25:51.278Z,155
2018-02-08T12:26:51.266Z,155
2018-02-08T12:27:51.489Z,155
2018-02-08T12:28:51.477Z,155
2018-02-08T12:29:51.204Z,155
2018-02-08T12:30:50.984Z,155
2018-02-08T12:31:51.176Z,155
2018-02-08T12:32:50.903Z,155
2018-02-08T12:33:51.401Z,155
2018-02-08T12:34:51.129Z,155
2018-02-08T12:35:51.128Z,150
2018-02-08T12:36:51.478Z,150
2018-02-08T12:37:51.081Z,150
2018-02-08T12:38:51.335Z,150
2018-02-08T12:39:51.319Z,150
2018-02-08T12:40:50.817Z,150
2018-02-08T12:41:51.044Z,150
2018-02-08T12:42:50.782Z,150
2018-02-08T12:43:51.015Z,150
2018-02-08T12:44:50.979Z,150
2018-02-08T12:45:51.024Z,150
2018-02-08T12:46:51.296Z,150
2018-02-08T12:47:50.970Z,150
2018-02-08T12:48:50.683Z,150
2018-02-08T12:49:50.933Z,150
2018-02-08T12:50:51.185Z,150
2018-02-08T12:51:50.384Z,150
2018-02-08T12:52:50.887Z,150
2018-02-08T12:53:50.894Z,150
2018-02-08T12:54:51.097Z,150
2018-02-08T12:55:50.836Z,150
2018-02-08T12:56:50.822Z,145
2018-02-08T12:57:50.799Z,145
2018-02-08T12:58:50.272Z,145
2018-02-08T12:59:51.037Z,145
2018-02-08T13:00:50.768Z,145
2018-02-08T13:01:51.306Z,145
2018-02-08T13:02:50.721Z,145
2018-02-08T13:03:50.954Z,145
2018-02-08T13:04:50.956Z,145
2018-02-08T13:05:50.939Z,145
2018-02-08T13:06:50.667Z,145
2018-02-08T13:07:50.677Z,145
2018-02-08T13:08:50.640Z,145
2018-02-08T13:09:50.368Z,145
2018-02-08T13:10:50.610Z,145
2018-02-08T13:11:50.595Z,145
2018-02-08T13:12:50.831Z,145
2018-02-08T13:13:50.922Z,145
2018-02-08T13:14:50.328Z,145
2018-02-08T13:15:50.802Z,140
2018-02-08T13:16:50.775Z,140
2018-02-08T13:17:50.768Z,140
2018-02-08T13:18:50.770Z,140
2018-02-08T13:19:50.748Z,140
2018-02-08T13:20:50.482Z,140
2018-02-08T13:21:50.449Z,140
2018-02-08T13:22:50.680Z,140
2018-02-08T13:23:50.202Z,140
2018-02-08T13:24:50.157Z,140
2018-02-08T13:25:50.397Z,140
2018-02-08T13:26:50.128Z,140
2018-02-08T13:27:50.355Z,140
2018-02-08T13:28:50.631Z,140
2018-02-08T13:29:50.583Z,140
2018-02-08T13:30:50.069Z,140
2018-02-08T13:31:50.563Z,135
2018-02-08T13:32:50.595Z,135
2018-02-08T13:33:50.291Z,135
2018-02-08T13:34:49.995Z,135
2018-02-08T13:35:49.990Z,135
2018-02-08T13:36:49.974Z,135
2018-02-08T13:37:50.462Z,135
2018-02-08T13:38:50.453Z,135
2018-02-08T13:39:50.485Z,135
2018-02-08T13:40:49.922Z,135
2018-02-08T13:41:50.463Z,135
2018-02-08T13:42:49.901Z,135
2018-02-08T13:43:50.123Z,135
2018-02-08T13:44:50.238Z,135
2018-02-08T13:45:50.103Z,135
2018-02-08T13:46:50.076Z,135
2018-02-08T13:47:50.319Z,135
2018-02-08T13:48:49.792Z,130
2018-02-08T13:49:50.284Z,130
2018-02-08T13:50:50.014Z,130
2018-02-08T13:51:50.005Z,130
2018-02-08T13:52:50.241Z,130
2018-02-08T13:53:49.975Z,130
2018-02-08T13:54:50.213Z,130
2018-02-08T13:55:50.203Z,130
2018-02-08T13:56:50.184Z,130
2018-02-08T13:57:49.998Z,130
2018-02-08T13:58:49.660Z,130
2018-02-08T13:59:50.136Z,130
2018-02-08T14:00:49.870Z,125
2018-02-08T14:01:50.106Z,125
2018-02-08T14:02:50.093Z,125
2018-02-08T14:03:49.576Z,125
2018-02-08T14:04:50.110Z,125
2018-02-08T14:05:49.790Z,125
2018-02-08T14:06:50.057Z,125
2018-02-08T14:07:50.050Z,125
2018-02-08T14:08:49.901Z,125
2018-02-08T14:09:50.050Z,120
2018-02-08T14:10:49.733Z,120
2018-02-08T14:11:49.459Z,120
2018-02-08T14:12:49.967Z,120
2018-02-08T14:13:49.683Z,120
2018-02-08T14:14:49.926Z,120
2018-02-08T14:15:49.655Z,120
2018-02-08T14:16:49.898Z,120